createdAt,value
2022-08-28T00:01:06.408Z,20.65
2022-08-28T00:03:33.777Z,20.58
2022-08-28T00:06:02.458Z,20.59
2022-08-28T00:08:30.681Z,20.49
2022-08-28T00:10:57.934Z,20.47
2022-08-28T00:13:25.863Z,20.44
2022-08-28T00:16:01.154Z,20.42
2022-08-28T00:18:31.322Z,20.37
2022-08-28T00:20:59.565Z,20.33
2022-08-28T00:23:30.411Z,20.29
2022-08-28T00:26:31.976Z,20.20
2022-08-28T00:29:00.036Z,20.18
2022-08-28T00:31:27.628Z,20.18
2022-08-28T00:33:54.893Z,20.13
2022-08-28T00:36:22.144Z,20.15
2022-08-28T00:38:50.583Z,20.11
2022-08-28T00:41:17.840Z,20.06
2022-08-28T00:44:15.203Z,20.07
2022-08-28T00:46:46.170Z,20.05
2022-08-28T00:49:16.466Z,20.00
2022-08-28T00:52:02.450Z,19.97
2022-08-28T00:54:33.152Z,19.99
2022-08-28T00:57:03.935Z,19.99
2022-08-28T00:59:31.465Z,20.04
2022-08-28T01:01:59.588Z,20.00
2022-08-28T01:04:29.709Z,19.86
2022-08-28T01:06:58.053Z,19.89
2022-08-28T01:09:28.227Z,19.89
2022-08-28T01:12:03.109Z,19.92
2022-08-28T01:14:32.633Z,20.03
2022-08-28T01:17:00.545Z,20.16
2022-08-28T01:19:37.413Z,20.00
2022-08-28T01:22:20.645Z,19.89
2022-08-28T01:24:49.844Z,19.78
2022-08-28T01:27:18.801Z,19.78
2022-08-28T01:29:47.954Z,19.75
2022-08-28T01:32:41.059Z,19.73
2022-08-28T01:35:12.993Z,19.60
2022-08-28T01:37:40.321Z,19.51
2022-08-28T01:40:10.369Z,19.52
2022-08-28T01:42:42.801Z,19.49
2022-08-28T01:45:14.664Z,19.48
2022-08-28T01:47:44.160Z,19.42
2022-08-28T01:50:14.923Z,19.43
2022-08-28T01:52:42.681Z,19.54
2022-08-28T01:55:11.386Z,19.57
2022-08-28T01:57:44.647Z,19.52
2022-08-28T02:00:13.771Z,19.37
2022-08-28T02:02:41.156Z,19.37
2022-08-28T02:05:09.996Z,19.26
2022-08-28T02:07:38.231Z,19.16
2022-08-28T02:10:07.476Z,19.07
2022-08-28T02:12:36.015Z,18.92
2022-08-28T02:15:08.229Z,18.83
2022-08-28T02:17:35.550Z,18.90
2022-08-28T02:20:03.751Z,18.91
2022-08-28T02:22:31.212Z,18.93
2022-08-28T02:24:58.415Z,18.93
2022-08-28T02:27:25.721Z,18.98
2022-08-28T02:29:53.561Z,19.00
2022-08-28T02:32:20.790Z,19.00
2022-08-28T02:34:47.979Z,19.14
2022-08-28T02:37:15.609Z,19.47
2022-08-28T02:39:42.803Z,19.24
2022-08-28T02:42:10.005Z,19.18
2022-08-28T02:44:38.547Z,19.15
2022-08-28T02:47:05.816Z,19.14
2022-08-28T02:49:36.159Z,19.13
2022-08-28T02:52:06.801Z,19.14
2022-08-28T02:54:34.985Z,19.09
2022-08-28T02:57:02.446Z,19.19
2022-08-28T02:59:30.235Z,19.34
2022-08-28T03:01:57.832Z,19.35
2022-08-28T03:04:25.013Z,19.27
2022-08-28T03:06:52.527Z,19.27
2022-08-28T03:09:19.731Z,19.22
2022-08-28T03:11:46.953Z,19.22
2022-08-28T03:14:14.435Z,19.21
2022-08-28T03:16:41.646Z,19.27
2022-08-28T03:19:08.875Z,19.30
2022-08-28T03:21:36.323Z,19.40
2022-08-28T03:24:04.111Z,19.42
2022-08-28T03:26:32.020Z,19.33
2022-08-28T03:28:59.972Z,19.28
2022-08-28T03:31:30.241Z,19.26
2022-08-28T03:33:57.595Z,19.27
2022-08-28T03:36:28.456Z,19.53
2022-08-28T03:38:58.179Z,19.72
2022-08-28T03:41:29.238Z,19.66
2022-08-28T03:43:58.372Z,19.65
2022-08-28T03:46:26.915Z,19.67
2022-08-28T03:48:54.407Z,19.57
2022-08-28T03:51:29.619Z,19.49
2022-08-28T03:54:02.107Z,19.43
2022-08-28T03:56:31.395Z,19.38
2022-08-28T03:59:04.364Z,19.36
2022-08-28T04:01:33.617Z,19.47
2022-08-28T04:04:01.008Z,19.44
2022-08-28T04:06:28.236Z,19.46
2022-08-28T04:08:59.996Z,19.54
2022-08-28T04:11:27.893Z,19.57
2022-08-28T04:13:55.065Z,19.61
2022-08-28T04:16:22.522Z,19.66
2022-08-28T04:18:49.987Z,19.74
2022-08-28T04:21:20.877Z,19.77
2022-08-28T04:23:48.597Z,19.95
2022-08-28T04:26:18.877Z,20.14
2022-08-28T04:28:46.846Z,20.37
2022-08-28T04:31:15.416Z,20.53
2022-08-28T04:33:43.273Z,20.57
2022-08-28T04:36:15.123Z,20.67
2022-08-28T04:38:44.207Z,20.69
2022-08-28T04:41:15.165Z,20.73
2022-08-28T04:43:42.747Z,20.82
2022-08-28T04:46:12.983Z,20.93
2022-08-28T04:48:41.949Z,21.13
2022-08-28T04:51:11.615Z,21.28
2022-08-28T04:53:39.764Z,21.37
2022-08-28T04:56:10.495Z,21.34
2022-08-28T04:58:39.342Z,21.31
2022-08-28T05:01:10.140Z,21.55
2022-08-28T05:03:37.505Z,21.59
2022-08-28T05:06:05.483Z,21.77
2022-08-28T05:08:33.651Z,22.63
2022-08-28T05:11:33.240Z,24.81
2022-08-28T05:14:04.692Z,26.06
2022-08-28T05:16:34.676Z,26.89
2022-08-28T05:19:03.163Z,27.09
2022-08-28T05:21:30.618Z,27.27
2022-08-28T05:23:59.311Z,26.99
2022-08-28T05:26:29.725Z,27.34
2022-08-28T05:28:58.962Z,27.24
2022-08-28T05:31:27.482Z,26.18
2022-08-28T05:33:55.243Z,25.83
2022-08-28T05:36:25.351Z,25.68
2022-08-28T05:38:57.385Z,25.36
2022-08-28T05:41:29.266Z,25.36
2022-08-28T05:44:02.977Z,25.10
2022-08-28T05:46:31.198Z,24.37
2022-08-28T05:49:00.490Z,24.54
2022-08-28T05:51:28.630Z,24.25
2022-08-28T05:53:57.839Z,24.67
2022-08-28T05:56:29.963Z,24.35
2022-08-28T05:59:00.298Z,25.92
2022-08-28T06:01:30.220Z,28.10
2022-08-28T06:04:03.313Z,29.58
2022-08-28T06:06:34.422Z,31.05
2022-08-28T06:09:06.002Z,32.30
2022-08-28T06:11:34.052Z,32.68
2022-08-28T06:14:04.577Z,32.93
2022-08-28T06:16:32.595Z,34.05
2022-08-28T06:19:00.757Z,34.91
2022-08-28T06:21:29.280Z,35.48
2022-08-28T06:23:56.661Z,36.07
2022-08-28T06:26:24.187Z,36.17
2022-08-28T06:28:53.179Z,36.34
2022-08-28T06:31:24.777Z,37.56
2022-08-28T06:33:56.120Z,36.77
2022-08-28T06:36:27.359Z,36.74
2022-08-28T06:38:58.176Z,35.92
2022-08-28T06:41:27.261Z,36.17
2022-08-28T06:43:55.178Z,36.74
2022-08-28T06:46:23.018Z,37.38
2022-08-28T06:48:51.488Z,37.18
2022-08-28T06:51:18.838Z,37.33
2022-08-28T06:53:46.832Z,37.92
2022-08-28T06:56:26.552Z,38.41
2022-08-28T06:58:57.558Z,39.61
2022-08-28T07:01:29.725Z,37.81
2022-08-28T07:03:59.885Z,37.87
2022-08-28T07:06:31.048Z,37.76
2022-08-28T07:08:58.308Z,37.08
2022-08-28T07:11:29.102Z,37.44
2022-08-28T07:13:58.434Z,38.08
2022-08-28T07:16:29.685Z,39.27
2022-08-28T07:18:58.397Z,37.29
2022-08-28T07:21:26.373Z,37.99
2022-08-28T07:23:55.251Z,38.06
2022-08-28T07:26:24.877Z,37.34
2022-08-28T07:28:53.465Z,37.30
2022-08-28T07:31:38.459Z,36.23
2022-08-28T07:34:05.690Z,35.84
2022-08-28T07:36:32.922Z,35.85
2022-08-28T07:39:00.433Z,36.35
2022-08-28T07:41:30.689Z,37.28
2022-08-28T07:44:16.897Z,37.22
2022-08-28T07:46:45.036Z,35.86
2022-08-28T07:49:15.615Z,38.38
2022-08-28T07:51:42.778Z,39.52
2022-08-28T07:54:15.535Z,40.73
2022-08-28T07:56:46.402Z,40.66
2022-08-28T07:59:16.742Z,41.33
2022-08-28T08:01:47.868Z,41.11
2022-08-28T08:04:19.329Z,41.34
2022-08-28T08:06:47.104Z,41.00
2022-08-28T08:09:17.898Z,40.74
2022-08-28T08:11:46.140Z,40.63
2022-08-28T08:14:16.073Z,39.04
2022-08-28T08:16:45.895Z,39.32
2022-08-28T08:19:16.475Z,38.60
2022-08-28T08:21:46.883Z,40.33
2022-08-28T08:24:20.641Z,40.87
2022-08-28T08:26:59.204Z,41.45
2022-08-28T08:29:31.545Z,39.43
2022-08-28T08:32:06.163Z,39.33
2022-08-28T08:34:40.070Z,38.95
2022-08-28T08:37:07.854Z,39.06
2022-08-28T08:39:36.492Z,38.34
2022-08-28T08:42:07.611Z,38.20
2022-08-28T08:44:42.317Z,38.32
2022-08-28T08:47:43.602Z,38.99
2022-08-28T08:50:34.426Z,40.71
2022-08-28T08:53:19.010Z,40.07
2022-08-28T08:55:54.443Z,40.80
2022-08-28T08:58:31.753Z,39.69
2022-08-28T09:01:29.070Z,40.67
2022-08-28T09:03:59.571Z,40.49
2022-08-28T09:06:44.116Z,39.83
2022-08-28T09:09:20.165Z,40.58
2022-08-28T09:11:57.374Z,41.60
2022-08-28T09:14:36.527Z,41.89
2022-08-28T09:17:06.120Z,40.43
2022-08-28T09:19:33.806Z,39.74
2022-08-28T09:22:02.018Z,39.38
2022-08-28T09:24:35.565Z,39.63
2022-08-28T09:27:10.021Z,39.74
2022-08-28T09:29:47.176Z,39.51
2022-08-28T09:32:24.087Z,39.79
2022-08-28T09:35:30.051Z,39.87
2022-08-28T09:38:20.916Z,41.32
2022-08-28T09:41:07.150Z,41.80
2022-08-28T09:43:36.727Z,40.98
2022-08-28T09:46:20.745Z,40.89
2022-08-28T09:48:52.428Z,38.96
2022-08-28T09:51:22.831Z,38.88
2022-08-28T09:53:53.654Z,38.52
2022-08-28T09:56:27.372Z,38.84
2022-08-28T09:59:15.430Z,39.09
2022-08-28T10:01:54.984Z,37.78
2022-08-28T10:05:04.016Z,38.34
2022-08-28T10:08:01.345Z,39.01
2022-08-28T10:10:48.085Z,39.31
2022-08-28T10:13:24.016Z,39.44
2022-08-28T10:16:14.441Z,39.70
2022-08-28T10:19:07.025Z,39.94
2022-08-28T10:21:51.261Z,39.26
2022-08-28T10:24:41.646Z,39.15
2022-08-28T10:27:24.842Z,39.43
2022-08-28T10:30:13.162Z,39.01
2022-08-28T10:33:18.127Z,37.82
2022-08-28T10:35:55.632Z,36.10
2022-08-28T10:38:40.248Z,36.99
2022-08-28T10:41:34.202Z,37.72
2022-08-28T10:44:03.824Z,37.75
2022-08-28T10:46:41.932Z,36.08
2022-08-28T10:49:31.060Z,34.46
2022-08-28T10:52:05.154Z,35.25
2022-08-28T10:54:58.974Z,35.30
2022-08-28T10:57:35.011Z,33.84
2022-08-28T11:00:12.866Z,32.58
2022-08-28T11:02:44.240Z,32.68
2022-08-28T11:05:12.733Z,32.08
2022-08-28T11:07:55.172Z,31.50
2022-08-28T11:10:40.967Z,31.85
2022-08-28T11:13:10.345Z,30.73
2022-08-28T11:15:41.814Z,30.51
2022-08-28T11:18:41.428Z,30.15
2022-08-28T11:21:20.588Z,29.05
2022-08-28T11:24:07.582Z,29.22
2022-08-28T11:26:50.636Z,29.01
2022-08-28T11:29:55.660Z,28.77
2022-08-28T11:32:31.067Z,28.34
2022-08-28T11:35:06.453Z,28.02
2022-08-28T11:37:40.546Z,27.75
2022-08-28T11:40:18.343Z,27.60
2022-08-28T11:42:48.890Z,27.54
2022-08-28T11:45:47.858Z,27.32
2022-08-28T11:48:33.794Z,27.25
2022-08-28T11:51:03.880Z,27.29
2022-08-28T11:53:49.326Z,27.33
2022-08-28T11:56:34.999Z,27.06
2022-08-28T11:59:18.200Z,26.96
2022-08-28T12:01:45.922Z,26.82
2022-08-28T12:04:16.692Z,26.77
2022-08-28T12:06:51.685Z,26.50
2022-08-28T12:09:39.549Z,26.47
2022-08-28T12:12:32.678Z,26.62
2022-08-28T12:15:03.095Z,26.60
2022-08-28T12:17:46.648Z,26.44
2022-08-28T12:20:30.074Z,26.28
2022-08-28T12:22:59.955Z,26.36
2022-08-28T12:25:36.461Z,26.43
2022-08-28T12:28:16.844Z,26.17
2022-08-28T12:30:57.154Z,25.88
2022-08-28T12:33:42.764Z,25.87
2022-08-28T12:36:15.674Z,25.96
2022-08-28T12:38:51.415Z,26.13
2022-08-28T12:41:20.954Z,26.21
2022-08-28T12:43:53.288Z,26.29
2022-08-28T12:46:31.227Z,26.23
2022-08-28T12:49:04.640Z,26.23
2022-08-28T12:51:36.242Z,26.43
2022-08-28T12:54:06.865Z,26.62
2022-08-28T12:56:39.111Z,26.55
2022-08-28T12:59:27.573Z,26.14
2022-08-28T13:02:09.737Z,25.68
2022-08-28T13:04:53.978Z,25.60
2022-08-28T13:07:32.255Z,25.61
2022-08-28T13:10:03.882Z,25.78
2022-08-28T13:12:55.589Z,25.92
2022-08-28T13:15:55.319Z,25.75
2022-08-28T13:18:36.557Z,25.44
2022-08-28T13:21:25.551Z,25.60
2022-08-28T13:24:21.290Z,25.87
2022-08-28T13:26:50.920Z,26.06
2022-08-28T13:29:22.455Z,26.49
2022-08-28T13:32:02.092Z,26.77
2022-08-28T13:34:32.520Z,26.96
2022-08-28T13:37:07.423Z,26.97
2022-08-28T13:39:42.467Z,26.82
2022-08-28T13:42:13.741Z,26.82
2022-08-28T13:44:50.841Z,26.67
2022-08-28T13:47:18.069Z,26.75
2022-08-28T13:49:46.646Z,26.93
2022-08-28T13:52:14.275Z,26.61
2022-08-28T13:54:43.741Z,26.37
2022-08-28T13:57:13.815Z,26.47
2022-08-28T13:59:41.680Z,26.40
2022-08-28T14:02:31.239Z,26.56
2022-08-28T14:04:58.895Z,26.30
2022-08-28T14:07:26.198Z,26.44
2022-08-28T14:09:56.380Z,26.57
2022-08-28T14:12:27.863Z,26.54
2022-08-28T14:15:00.224Z,26.63
2022-08-28T14:17:27.645Z,26.45
2022-08-28T14:19:54.845Z,26.63
2022-08-28T14:22:22.145Z,26.61
2022-08-28T14:24:49.535Z,26.53
2022-08-28T14:27:16.747Z,26.72
2022-08-28T14:29:43.952Z,26.80
2022-08-28T14:32:11.669Z,26.86
2022-08-28T14:34:39.018Z,27.00
2022-08-28T14:37:06.522Z,26.85
2022-08-28T14:39:33.776Z,26.82
2022-08-28T14:42:01.988Z,26.66
2022-08-28T14:44:29.479Z,26.71
2022-08-28T14:46:57.319Z,26.78
2022-08-28T14:49:25.927Z,26.73
2022-08-28T14:51:54.263Z,26.78
2022-08-28T14:54:24.205Z,26.69
2022-08-28T14:56:52.666Z,26.66
2022-08-28T14:59:26.076Z,26.58
2022-08-28T15:01:55.667Z,26.57
2022-08-28T15:04:24.815Z,26.15
2022-08-28T15:06:58.379Z,26.04
2022-08-28T15:09:26.795Z,26.00
2022-08-28T15:11:54.467Z,25.66
2022-08-28T15:14:21.884Z,25.53
2022-08-28T15:16:49.469Z,25.60
2022-08-28T15:19:18.158Z,25.59
2022-08-28T15:21:52.045Z,25.31
2022-08-28T15:24:23.507Z,25.06
2022-08-28T15:26:51.109Z,25.05
2022-08-28T15:29:18.501Z,24.90
2022-08-28T15:31:49.078Z,24.87
2022-08-28T15:34:24.157Z,24.85
2022-08-28T15:36:55.560Z,24.69
2022-08-28T15:39:43.795Z,24.79
2022-08-28T15:42:11.620Z,24.77
2022-08-28T15:44:39.071Z,24.84
2022-08-28T15:47:06.955Z,24.74
2022-08-28T15:49:43.686Z,24.66
2022-08-28T15:52:16.202Z,24.72
2022-08-28T15:54:43.409Z,24.69
2022-08-28T15:57:10.605Z,24.82
2022-08-28T15:59:49.945Z,24.76
2022-08-28T16:02:21.249Z,24.64
2022-08-28T16:04:49.179Z,24.65
2022-08-28T16:07:17.424Z,24.60
2022-08-28T16:09:45.390Z,24.50
2022-08-28T16:12:13.357Z,24.55
2022-08-28T16:14:40.550Z,24.48
2022-08-28T16:17:11.058Z,24.40
2022-08-28T16:19:40.314Z,24.44
2022-08-28T16:22:09.486Z,24.39
2022-08-28T16:24:37.284Z,24.32
2022-08-28T16:27:06.376Z,24.30
2022-08-28T16:29:37.439Z,24.23
2022-08-28T16:32:05.631Z,24.28
2022-08-28T16:34:34.877Z,24.14
2022-08-28T16:37:04.347Z,24.17
2022-08-28T16:39:31.792Z,24.19
2022-08-28T16:41:59.380Z,24.22
2022-08-28T16:44:26.767Z,24.22
2022-08-28T16:46:55.246Z,24.13
2022-08-28T16:49:23.914Z,24.17
2022-08-28T16:51:51.556Z,24.00
2022-08-28T16:54:19.149Z,23.89
2022-08-28T16:56:46.754Z,23.62
2022-08-28T16:59:24.093Z,23.49
2022-08-28T17:01:53.008Z,23.57
2022-08-28T17:04:22.139Z,23.48
2022-08-28T17:06:49.489Z,23.39
2022-08-28T17:09:16.972Z,23.38
2022-08-28T17:11:51.659Z,23.31
2022-08-28T17:14:20.640Z,23.29
2022-08-28T17:16:48.480Z,23.19
2022-08-28T17:19:15.869Z,23.10
2022-08-28T17:22:02.384Z,22.91
2022-08-28T17:24:31.098Z,22.82
2022-08-28T17:27:03.243Z,22.83
2022-08-28T17:29:34.178Z,22.78
2022-08-28T17:32:01.976Z,22.66
2022-08-28T17:34:30.534Z,22.61
2022-08-28T17:36:58.045Z,22.55
2022-08-28T17:39:25.815Z,22.37
2022-08-28T17:41:53.052Z,22.29
2022-08-28T17:44:20.426Z,22.18
2022-08-28T17:46:47.955Z,22.05
2022-08-28T17:49:15.175Z,21.92
2022-08-28T17:51:44.320Z,21.97
2022-08-28T17:54:14.666Z,21.93
2022-08-28T17:56:41.969Z,21.86
2022-08-28T17:59:10.437Z,21.84
2022-08-28T18:01:38.534Z,21.73
2022-08-28T18:04:06.030Z,21.88
2022-08-28T18:06:33.806Z,21.79
2022-08-28T18:09:01.666Z,21.69
2022-08-28T18:11:29.060Z,21.74
2022-08-28T18:13:56.297Z,21.78
2022-08-28T18:16:27.611Z,21.88
2022-08-28T18:18:57.772Z,21.87
2022-08-28T18:21:25.451Z,21.69
2022-08-28T18:23:52.790Z,21.50
2022-08-28T18:26:20.276Z,21.60
2022-08-28T18:28:48.302Z,21.59
2022-08-28T18:31:16.536Z,21.47
2022-08-28T18:33:50.000Z,21.42
2022-08-28T18:36:17.405Z,21.40
2022-08-28T18:38:44.995Z,21.30
2022-08-28T18:41:12.308Z,21.33
2022-08-28T18:43:39.729Z,21.30
2022-08-28T18:46:09.270Z,21.37
2022-08-28T18:48:37.894Z,21.35
2022-08-28T18:51:07.854Z,21.32
2022-08-28T18:53:36.077Z,21.03
2022-08-28T18:56:04.507Z,21.02
2022-08-28T18:58:32.225Z,21.07
2022-08-28T19:01:02.267Z,21.10
2022-08-28T19:03:30.258Z,21.11
2022-08-28T19:05:57.651Z,21.25
2022-08-28T19:08:25.924Z,21.34
2022-08-28T19:10:54.182Z,21.33
2022-08-28T19:13:21.868Z,21.52
2022-08-28T19:15:53.035Z,21.49
2022-08-28T19:18:21.003Z,21.47
2022-08-28T19:20:48.247Z,21.36
2022-08-28T19:23:17.850Z,21.23
2022-08-28T19:25:46.096Z,21.18
2022-08-28T19:28:14.022Z,21.09
2022-08-28T19:30:42.249Z,21.09
2022-08-28T19:33:12.601Z,21.11
2022-08-28T19:35:39.826Z,21.05
2022-08-28T19:38:07.355Z,21.22
2022-08-28T19:40:34.760Z,21.06
2022-08-28T19:43:01.988Z,21.10
2022-08-28T19:45:29.753Z,21.00
2022-08-28T19:47:57.644Z,21.10
2022-08-28T19:50:24.851Z,20.92
2022-08-28T19:52:52.298Z,20.79
2022-08-28T19:55:24.075Z,20.60
2022-08-28T19:57:51.510Z,20.67
2022-08-28T20:00:22.386Z,20.82
2022-08-28T20:02:52.418Z,20.67
2022-08-28T20:05:20.665Z,20.64
2022-08-28T20:07:48.487Z,20.62
2022-08-28T20:10:16.294Z,20.46
2022-08-28T20:12:48.807Z,20.53
2022-08-28T20:15:18.892Z,20.37
2022-08-28T20:17:49.770Z,20.38
2022-08-28T20:20:24.563Z,20.34
2022-08-28T20:22:54.386Z,20.38
2022-08-28T20:25:21.980Z,20.32
2022-08-28T20:27:49.209Z,20.44
2022-08-28T20:30:17.588Z,20.38
2022-08-28T20:32:44.800Z,20.24
2022-08-28T20:35:13.376Z,20.34
2022-08-28T20:37:45.393Z,20.33
2022-08-28T20:40:19.285Z,20.28
2022-08-28T20:42:48.656Z,20.15
2022-08-28T20:45:21.375Z,20.13
2022-08-28T20:47:51.993Z,20.12
2022-08-28T20:50:19.755Z,20.05
2022-08-28T20:52:47.091Z,20.01
2022-08-28T20:55:14.964Z,19.89
2022-08-28T20:57:42.312Z,19.97
2022-08-28T21:00:11.480Z,19.99
2022-08-28T21:02:38.931Z,19.96
2022-08-28T21:05:06.799Z,20.07
2022-08-28T21:07:35.281Z,20.13
2022-08-28T21:10:07.049Z,20.22
2022-08-28T21:12:37.125Z,20.34
2022-08-28T21:15:06.824Z,20.22
2022-08-28T21:17:34.541Z,20.25
2022-08-28T21:20:09.370Z,20.19
2022-08-28T21:22:39.101Z,19.98
2022-08-28T21:25:08.295Z,19.93
2022-08-28T21:27:36.317Z,20.05
2022-08-28T21:30:06.037Z,19.94
2022-08-28T21:32:34.192Z,19.96
2022-08-28T21:35:02.679Z,20.02
2022-08-28T21:37:31.377Z,20.03
2022-08-28T21:39:59.685Z,19.99
2022-08-28T21:42:27.927Z,19.90
2022-08-28T21:44:55.567Z,19.87
2022-08-28T21:47:24.381Z,19.92
2022-08-28T21:49:54.274Z,19.94
2022-08-28T21:52:23.678Z,19.91
2022-08-28T21:55:04.894Z,19.99
2022-08-28T21:57:32.628Z,19.95
2022-08-28T21:59:59.984Z,19.97
2022-08-28T22:02:27.673Z,20.06
2022-08-28T22:04:55.168Z,20.14
2022-08-28T22:07:22.717Z,20.09
2022-08-28T22:09:50.820Z,20.05
2022-08-28T22:12:18.736Z,20.12
2022-08-28T22:14:46.185Z,20.23
2022-08-28T22:17:15.139Z,20.41
2022-08-28T22:19:42.906Z,20.50
2022-08-28T22:22:32.321Z,20.38
2022-08-28T22:25:00.074Z,20.19
2022-08-28T22:27:27.647Z,20.22
2022-08-28T22:29:55.648Z,20.28
2022-08-28T22:32:26.971Z,20.06
2022-08-28T22:34:54.847Z,19.94
2022-08-28T22:37:23.287Z,19.86
2022-08-28T22:39:50.858Z,19.91
2022-08-28T22:42:18.101Z,19.88
2022-08-28T22:44:45.306Z,20.04
2022-08-28T22:47:12.792Z,20.16
2022-08-28T22:49:39.975Z,20.11
2022-08-28T22:52:10.437Z,19.96
2022-08-28T22:54:38.722Z,19.89
2022-08-28T22:57:06.069Z,19.94
2022-08-28T22:59:34.432Z,19.96
2022-08-28T23:02:03.669Z,19.80
2022-08-28T23:04:31.201Z,19.65
2022-08-28T23:06:58.494Z,19.39
2022-08-28T23:09:26.418Z,19.38
2022-08-28T23:11:53.643Z,19.46
2022-08-28T23:14:20.856Z,19.49
2022-08-28T23:16:49.154Z,19.47
2022-08-28T23:19:16.984Z,19.57
2022-08-28T23:21:44.562Z,19.59
2022-08-28T23:24:14.322Z,19.66
2022-08-28T23:26:42.428Z,19.71
2022-08-28T23:29:10.814Z,19.70
2022-08-28T23:31:39.171Z,19.87
2022-08-28T23:34:06.796Z,19.91
2022-08-28T23:36:35.715Z,19.83
2022-08-28T23:39:04.529Z,19.71
2022-08-28T23:41:32.936Z,19.78
2022-08-28T23:44:01.682Z,19.85
2022-08-28T23:46:32.247Z,19.79
2022-08-28T23:49:00.234Z,19.73
2022-08-28T23:51:27.676Z,19.62
2022-08-28T23:53:55.522Z,19.46
2022-08-28T23:56:23.297Z,19.49
2022-08-28T23:58:55.545Z,19.45
